Terminal Aerodrome Forecast
Issued by NWS

Home | Current Version | Previous Version | Text Only | Print | Product List | Glossary On
Versions: 1 2 3 4 5 6 7 8 9 10 11 12 13
000
FTUS42 KMLB 290500
TAFTIX
TAF
KTIX 290529Z 2906/3006 32004KT P6SM SKC
     FM291500 04008KT P6SM SCT040
      AMD NOT SKED 2906/2912=

USA.gov is the U.S. government's official web portal to all federal, state and local government web resources and services.